Weather observations for the past three days for
Dallas / Addison Airport
Metric (Imperial)
Date Time (cdt) Wind (kph) Vis. (km) Weather Sky Cond. Temperature (ºC) Relative Humidity Wind Chill (°C) Heat Index (°C) Pressure Precipitation (cm)
Air Dwpt 6 hour altimeter (cm) sea level (mb) 1 hr 3 hr 6 hr
Max. Min.
10 06:47 E 15 16.09 Mostly Cloudy BKN042 19 16 83% 76.07 0.0
10 06:00 E 20 16.09 Partly Cloudy SCT048 SCT050 19 16 83% 76.05 0.0
10 05:35 E 24 G 33 16.09 Mostly Cloudy BKN046 BKN060 BKN070 19 18 94% 76 0.0
10 05:15 E 20 G 39 16.09 Overcast BKN047 BKN060 OVC070 19 17 88% 76.05 0.0
10 04:55 E 24 G 41 16.09 Light Rain SCT032 BKN044 OVC070 20 17 83% 76.02 0.0
10 04:35 E 39 G 50 16.09 Thunderstorm in Vicinity and Breezy FEW021 BKN030 OVC050 21 17 78% 75.95 0.0
10 04:15 NE 33 G 52 16.09 Thunderstorm in Vicinity and Breezy SCT010 SCT018 OVC024 23 17 69% 76.02 0.0
10 03:55 NE 15 16.09 Thunderstorm in Vicinity SCT027 BKN035 OVC065 24 22 89% 24 75.95 0.0
10 03:35 E 13 16.09 Thunderstorm in Vicinity SCT039 BKN049 BKN065 24 22 89% 24 75.87 0.0
10 03:15 N 15 16.09 Thunderstorm in Vicinity FEW037 SCT065 24 22 89% 24 75.92 0.0
10 02:55 E 11 16.09 Fair CLR 25 22 83% 26 75.84 0.0
10 02:35 SE 13 16.09 Fair CLR 25 22 83% 26 75.79 0.0
10 02:15 E 19 16.09 Fair CLR 25 22 83% 26 75.77 0.0
10 01:55 E 19 16.09 Partly Cloudy SCT050 SCT070 25 22 83% 26 75.79 0.0
10 01:35 NE 26 16.09 Thunderstorm in Vicinity SCT050 BKN070 25 21 79% 26 75.9 0.0
10 01:15 N 15 16.09 Thunderstorm in Vicinity CLR 25 20 74% 26 75.9 0.0
10 00:55 E 11 16.09 Thunderstorm in Vicinity CLR 25 20 30.8 25.2 74% 26 75.77 0.0
10 00:35 SE 20 16.09 Fair CLR 25 20 74% 26 75.69 0.0
10 00:15 SE 24 G 33 16.09 Fair CLR 26 19 65% 27 75.69 0.0
09 23:55 SE 20 G 28 16.09 Fair CLR 26 18 61% 27 75.69 0.0
09 23:35 SE 26 16.09 Fair CLR 26 18 61% 27 75.64 0.0
09 23:15 SE 17 16.09 Fair CLR 26 18 61% 27 75.69 0.0
09 22:55 SE 19 16.09 Fair CLR 27 19 62% 28 75.69 0.0
09 22:35 SE 20 16.09 Fair CLR 27 18 58% 28 75.69 0.0
09 22:15 SE 15 16.09 Fair CLR 27 18 58% 28 75.69 0.0
09 21:55 SE 13 16.09 Fair CLR 27 18 58% 28 75.69 0.0
09 21:35 E 11 16.09 Fair CLR 27 17 54% 28 75.69 0.0
09 20:47 E 13 16.09 Clear SKC 28 14 42% 28 75.67 0.0
09 19:47 E 15 16.09 Clear SKC 29 14 40% 29 75.62 0.0
09 18:47 E 13 16.09 Clear SKC 30 16 43% 30 75.62 0.0
09 17:50 E 17 16.09 Clear SKC 30 16 43% 30 75.62 0.0
09 16:52 SE 19 16.09 A Few Clouds FEW040 31 17 43% 31 75.59 0.0
09 15:50 NE 6 16.09 A Few Clouds FEW040 32 15 36% 32 75.67 0.0
09 14:47 N 11 16.09 Clear SKC 30 14 38% 29 75.72 0.0
09 13:47 NW 9 16.09 A Few Clouds FEW045 30 17 46% 30 75.77 0.0
09 12:48 NE 11 16.09 A Few Clouds FEW025 28 18 55% 29 75.82 0.0
09 11:47 NW 13 16.09 Clear SKC 27 17 54% 28 75.84 0.0
09 10:47 NW 13 16.09 Clear SKC 26 17 58% 27 75.84 0.0
09 09:47 N 15 16.09 Clear SKC 25 17 61% 26 75.84 0.0
09 08:47 NW 20 16.09 A Few Clouds with Haze FEW015 23 17 69% 75.82 0.0
09 07:47 NW 11 8.05 A Few Clouds with Haze FEW020 22 20 88% 75.82 0.0
09 06:53 W 13 16.09 Mostly Cloudy BKN009 21 18 83% 75.79 0.0
09 05:47 Calm 16.09 Clear SKC 22 20 88% 75.67 0.0
09 05:35 S 7 14.48 A Few Clouds FEW013 22 21 94% 75.67 0.0
09 05:15 S 7 12.87 Mostly Cloudy BKN013 21 20 94% 75.67 0.0
09 04:55 SE 7 12.87 Mostly Cloudy BKN011 22 21 94% 75.64 0.0
09 04:35 Vrbl 4 14.48 Overcast OVC011 22 21 94% 75.64 0.0
09 04:15 W 7 14.48 Partly Cloudy SCT013 22 21 94% 75.62 0.0
09 03:55 S 13 G 44 14.48 Fair CLR 22 21 94% 75.51 0.0
09 03:35 S 24 14.48 Fair CLR 21 20 94% 75.54 0.0
09 03:15 S 15 G 26 16.09 Fair CLR 22 20 88% 75.62 0.0
09 02:55 SW 11 16.09 Fair CLR 22 20 88% 75.69 0.0
09 02:35 SW 13 16.09 Partly Cloudy SCT020 22 20 88% 75.74 0.0
09 02:15 SW 9 16.09 Overcast OVC020 22 20 88% 75.77 0.0
09 01:55 Vrbl 7 16.09 Mostly Cloudy BKN022 22 20 88% 75.79 0.0
09 01:35 Vrbl 7 16.09 Fair CLR 22 20 88% 75.79 0.0
09 01:15 SW 9 16.09 Fair CLR 22 20 88% 75.77 0.0
09 00:55 SW 6 16.09 A Few Clouds FEW017 22 20 24.3 22.6 88% 75.79 0.0
09 00:35 SW 4 16.09 Mostly Cloudy BKN017 23 20 83% 75.82 0.0
09 00:15 NW 11 16.09 Mostly Cloudy BKN017 23 20 83% 75.87 0.0
08 23:55 Vrbl 9 16.09 Mostly Cloudy BKN019 23 20 83% 75.77 0.0
08 23:35 S 11 16.09 Mostly Cloudy BKN019 BKN120 23 20 83% 75.77 0.0
08 23:15 SE 15 16.09 A Few Clouds FEW020 FEW085 FEW120 23 19 78% 75.74 0.0
08 22:55 SE 19 16.09 Thunderstorm in Vicinity BKN020 BKN085 BKN120 23 19 78% 75.74 0.0
08 22:35 N 6 16.09 Thunderstorm in Vicinity OVC020 23 19 78% 75.79 0.0
08 22:15 E 9 16.09 Thunderstorm in Vicinity BKN020 OVC075 23 19 78% 75.77 0.0
08 21:55 SE 13 16.09 Overcast SCT020 SCT055 OVC075 23 19 78% 75.72 0.0
08 21:35 Vrbl 9 16.09 Overcast BKN020 BKN050 OVC075 23 19 78% 75.69 0.0
08 20:47 S 11 16.09 Mostly Cloudy SCT031 BKN050 23 16 65% 75.67 0.0
08 19:47 S 13 16.09 Overcast FEW050 OVC060 23 15 61% 75.64 0.0
08 18:47 SE 13 16.09 Mostly Cloudy BKN026 24 15 57% 25 75.67 0.0
08 17:47 S 11 G 22 16.09 Mostly Cloudy BKN028 BKN033 24 14 54% 25 75.67 0.0
08 16:47 S 7 16.09 Overcast OVC032 25 15 54% 26 75.67 0.0
08 15:47 S 9 16.09 Light Rain SCT027 OVC031 23 14 57% 75.69 0.0
08 14:47 SW 6 16.09 Overcast OVC031 25 14 51% 26 75.84 0.0
08 13:53 SW 13 16.09 Overcast OVC035 24 14 54% 25 75.87 0.0
08 12:47 SE 9 16.09 A Few Clouds FEW055 25 16 57% 26 75.92 0.0
08 11:47 S 9 16.09 Mostly Cloudy FEW041 SCT050 BKN075 23 12 50% 76.02 0.0
08 10:47 S 11 16.09 Overcast OVC055 21 11 53% 76.07 0.0
08 09:47 SE 13 16.09 Overcast OVC065 20 13 64% 76.07 0.0
08 08:47 SE 20 16.09 Mostly Cloudy BKN090 20 13 64% 76.1 0.0
08 07:47 SE 7 16.09 Overcast SCT070 OVC090 18 11 64% 76.15 0.0
08 06:47 S 11 16.09 Overcast BKN075 OVC090 18 13 73% 76.12 0.0
08 05:47 NW 11 16.09 Thunderstorm OVC065 18 14 78% 76.17 0.0
08 05:35 N 9 16.09 Thunderstorm in Vicinity OVC065 18 14 78% 76.12 0.0
08 05:15 S 11 16.09 Thunderstorm SCT070 BKN075 BKN095 18 14 78% 76.05 0.0
08 04:55 S 7 16.09 Thunderstorm in Vicinity Rain FEW043 BKN070 BKN090 18 14 78% 76.05 0.0
08 04:35 Vrbl 9 16.09 Overcast OVC070 18 13 73% 76.05 0.0
08 04:15 SE 6 16.09 Overcast BKN070 OVC085 18 13 73% 76.07 0.0
08 03:55 SE 6 16.09 Overcast SCT048 SCT065 OVC080 18 13 73% 76.07 0.0
08 03:35 Vrbl 4 16.09 Overcast SCT050 BKN080 OVC100 18 13 73% 76.1 0.0
08 03:15 SE 17 16.09 Overcast OVC080 18 13 73% 76.07 0.0
08 02:55 E 4 16.09 Overcast OVC080 18 13 73% 76.15 0.0
08 02:35 Calm 16.09 Thunderstorm BKN080 OVC090 19 13 68% 76.17 0.0
08 02:15 SE 7 16.09 Overcast BKN070 OVC100 18 13 73% 76.12 0.0
08 01:55 E 6 16.09 Overcast OVC070 19 13 68% 76.15 0.0
08 01:35 SE 4 16.09 Overcast OVC070 19 12 64% 76.17 0.0
08 01:15 S 6 16.09 Overcast BKN070 OVC080 19 12 64% 76.2 0.0
08 00:55 S 7 16.09 Mostly Cloudy BKN070 18 12 22 18.1 68% 76.17 0.0
08 00:35 S 6 16.09 Mostly Cloudy BKN080 18 12 68% 76.2 0.0
08 00:15 S 4 16.09 Fair CLR 19 13 68% 76.2 0.0
07 23:55 SE 9 16.09 Fair CLR 19 13 68% 76.17 0.0
07 23:35 SE 7 16.09 Fair CLR 19 13 68% 76.17 0.0
07 23:15 E 4 16.09 Fair CLR 19 12 64% 76.17 0.0
07 22:55 E 4 16.09 Fair CLR 19 12 64% 76.17 0.0
07 22:35 SE 6 16.09 Fair CLR 19 12 64% 76.17 0.0
07 22:15 SE 11 16.09 Fair CLR 19 12 64% 76.17 0.0
07 21:55 SE 11 16.09 Fair CLR 19 12 64% 76.17 0.0
07 21:47 SE 13 16.09 Clear SKC 19 10 56% 76.17 0.0
07 21:35 S 11 16.09 Fair CLR 19 12 64% 76.15 0.0
07 20:47 S 9 16.09 Clear SKC 20 12 60% 76.15 0.0
07 19:47 S 11 16.09 Clear SKC 21 11 53% 76.12 0.0
07 18:47 S 13 16.09 Clear SKC 21 10 50% 76.15 0.0
07 17:47 SW 7 16.09 Clear SKC 22 9 44% 76.15 0.0
07 17:35 S 7 16.09 Clear SKC 22 9 44% 76.17 0.0
07 16:57 E 7 16.09 Clear SKC 23 7 36% 76.17 0.0
07 15:50 E 11 16.09 Clear SKC 23 7 36% 76.2 0.0
07 14:47 NE 13 16.09 Clear SKC 23 7 36% 76.28 0.0
07 13:47 N 20 G 31 16.09 Clear SKC 22 7 38% 76.3 0.0
07 12:47 NE 20 G 26 16.09 Clear SKC 21 7 40% 76.38 0.0
07 11:50 N 13 16.09 Clear SKC 20 6 40% 76.48 0.0
07 10:47 NE 6 16.09 Clear SKC 18 7 49% 76.5 0.0
07 09:49 NE 7 16.09 Clear SKC 17 8 56% 76.53 0.0
07 08:47 N 7 16.09 Clear SKC 15 11 77% 76.56 0.0
07 07:51 Calm 20.92 Mostly Cloudy BKN250 14 9 72% 76.56 0.0
Date Time (cdt) Wind (kph) Vis. (km) Weather Sky Cond. Air Dwpt Max. Min. Relative Humidity Wind Chill (°C) Heat Index (°C) altimeter (cm) sea level (mb) 1 hr 3 hr 6 hr
6 hour
Temperature (ºC) Pressure Precipitation (cm)